Time;durP1;ratioP1;P1;durP2;ratioP2;P2;SDS_P1;SDS_P2;PMS_P1;PMS_P2;Temp;Humidity;BMP_temperature;BMP_pressure;BME280_temperature;BME280_humidity;BME280_pressure;Samples;Min_cycle;Max_cycle;Signal;HPM_P1;HPM_P2
2023/04/17 00:01:56;;;;;;;16.47;14.67;;;;;;;;;;5072085;28;20483;-58
2023/04/17 00:04:24;;;;;;;16.20;14.57;;;;;;;;;;5075890;28;20861;-53
2023/04/17 00:06:52;;;;;;;19.47;16.80;;;;;;;;;;5075983;28;21185;-57
2023/04/17 00:09:19;;;;;;;15.90;14.20;;;;;;;;;;5076338;28;20829;-57
2023/04/17 00:11:46;;;;;;;16.90;15.17;;;;;;;;;;5076151;28;20450;-56
2023/04/17 00:14:14;;;;;;;15.03;13.50;;;;;;;;;;5076085;28;20782;-52
2023/04/17 00:16:41;;;;;;;18.70;15.13;;;;;;;;;;5075878;28;20456;-55
2023/04/17 00:19:08;;;;;;;16.93;15.20;;;;;;;;;;5075866;28;20943;-54
2023/04/17 00:21:35;;;;;;;17.10;15.40;;;;;;;;;;5075769;28;20538;-55
2023/04/17 00:24:02;;;;;;;15.37;13.80;;;;;;;;;;5075888;28;20453;-55
2023/04/17 00:26:31;;;;;;;17.10;14.60;;;;;;;;;;5075880;28;20833;-58
2023/04/17 00:28:58;;;;;;;15.87;14.17;;;;;;;;;;5075780;28;20452;-55
2023/04/17 00:31:26;;;;;;;17.20;15.40;;;;;;;;;;5075656;28;20539;-57
2023/04/17 00:33:53;;;;;;;19.67;14.63;;;;;;;;;;5075487;28;20452;-55
2023/04/17 00:36:20;;;;;;;15.87;14.17;;;;;;;;;;5075664;28;20447;-57
2023/04/17 00:38:47;;;;;;;21.93;15.07;;;;;;;;;;5075662;28;20565;-58
2023/04/17 00:41:13;;;;;;;16.17;14.47;;;;;;;;;;5075549;28;20448;-56
2023/04/17 00:43:40;;;;;;;19.73;13.90;;;;;;;;;;5075287;28;20503;-57
2023/04/17 00:46:08;;;;;;;15.67;14.03;;;;;;;;;;5075423;28;20459;-56
2023/04/17 00:48:39;;;;;;;15.83;14.00;;;;;;;;;;5075317;28;20542;-56
2023/04/17 00:51:06;;;;;;;14.93;13.50;;;;;;;;;;5075548;28;20452;-57
2023/04/17 00:53:34;;;;;;;18.20;13.47;;;;;;;;;;5075666;28;20539;-57
2023/04/17 00:56:01;;;;;;;16.80;15.10;;;;;;;;;;5075355;28;20538;-54
2023/04/17 00:58:28;;;;;;;17.57;15.73;;;;;;;;;;5075200;28;20923;-57
2023/04/17 01:00:55;;;;;;;20.87;15.47;;;;;;;;;;5075119;28;20579;-56
2023/04/17 01:03:22;;;;;;;17.40;14.90;;;;;;;;;;5075337;28;20535;-53
2023/04/17 01:05:51;;;;;;;17.83;15.37;;;;;;;;;;5075174;28;20852;-56
2023/04/17 01:08:18;;;;;;;17.77;14.93;;;;;;;;;;5075159;28;20448;-52
2023/04/17 01:10:45;;;;;;;20.90;15.40;;;;;;;;;;5075008;28;20444;-56
2023/04/17 01:13:11;;;;;;;19.13;15.10;;;;;;;;;;5074527;28;20458;-56
2023/04/17 01:15:38;;;;;;;17.37;15.17;;;;;;;;;;5074828;28;20543;-55
2023/04/17 01:18:06;;;;;;;18.40;15.33;;;;;;;;;;5074902;28;20570;-52
2023/04/17 01:20:33;;;;;;;17.07;15.27;;;;;;;;;;5074900;28;20451;-52
2023/04/17 01:23:02;;;;;;;16.40;14.70;;;;;;;;;;5074821;28;20451;-57
2023/04/17 01:25:30;;;;;;;15.77;14.13;;;;;;;;;;5074817;28;20458;-55
2023/04/17 01:27:57;;;;;;;19.90;15.93;;;;;;;;;;5074668;28;20452;-52
2023/04/17 01:30:24;;;;;;;17.70;15.60;;;;;;;;;;5074550;28;20514;-56
2023/04/17 01:32:51;;;;;;;19.50;14.67;;;;;;;;;;5074903;28;20550;-58
2023/04/17 01:35:18;;;;;;;18.93;15.73;;;;;;;;;;5074714;28;20504;-57
2023/04/17 01:37:44;;;;;;;19.87;16.90;;;;;;;;;;5074397;28;20982;-57
2023/04/17 01:40:12;;;;;;;18.13;16.07;;;;;;;;;;5074399;28;20540;-58
2023/04/17 01:42:40;;;;;;;20.73;16.43;;;;;;;;;;5074035;28;20535;-57
2023/04/17 01:45:07;;;;;;;18.17;16.10;;;;;;;;;;5074288;28;20923;-55
2023/04/17 01:47:34;;;;;;;22.60;17.07;;;;;;;;;;5074344;28;20455;-57
2023/04/17 01:50:02;;;;;;;19.03;14.93;;;;;;;;;;5074209;28;20539;-56
2023/04/17 01:52:29;;;;;;;18.37;16.37;;;;;;;;;;5074265;28;20452;-57
2023/04/17 01:54:56;;;;;;;20.13;16.40;;;;;;;;;;5074163;28;20525;-55
2023/04/17 01:57:23;;;;;;;18.13;16.20;;;;;;;;;;5073978;28;20908;-56
2023/04/17 01:59:51;;;;;;;22.83;15.70;;;;;;;;;;5074136;28;20474;-57
2023/04/17 02:02:18;;;;;;;17.90;15.27;;;;;;;;;;5074022;28;20459;-56
2023/04/17 02:04:45;;;;;;;17.93;15.60;;;;;;;;;;5073748;28;21008;-56
2023/04/17 02:07:12;;;;;;;19.50;15.90;;;;;;;;;;5073840;28;20540;-52
2023/04/17 02:09:39;;;;;;;21.07;15.80;;;;;;;;;;5073773;28;20786;-54
2023/04/17 02:12:06;;;;;;;16.13;14.40;;;;;;;;;;5073615;28;20547;-55
2023/04/17 02:14:33;;;;;;;18.43;14.77;;;;;;;;;;5073737;28;20458;-57
2023/04/17 02:17:02;;;;;;;18.00;14.60;;;;;;;;;;5073438;28;20543;-57
2023/04/17 02:19:29;;;;;;;17.47;15.53;;;;;;;;;;5073606;28;20479;-57
2023/04/17 02:21:56;;;;;;;17.90;15.40;;;;;;;;;;5073481;28;21018;-54
2023/04/17 02:24:22;;;;;;;19.40;15.83;;;;;;;;;;5073353;28;20447;-56
2023/04/17 02:26:50;;;;;;;19.83;15.30;;;;;;;;;;5072902;28;20444;-57
2023/04/17 02:29:17;;;;;;;18.37;16.47;;;;;;;;;;5073518;28;20443;-56
2023/04/17 02:31:44;;;;;;;16.67;14.97;;;;;;;;;;5073368;28;20450;-56
2023/04/17 02:34:12;;;;;;;18.87;15.63;;;;;;;;;;5073280;28;20487;-57
2023/04/17 02:36:39;;;;;;;18.53;15.00;;;;;;;;;;5073217;28;20456;-57
2023/04/17 02:39:06;;;;;;;18.70;13.80;;;;;;;;;;5073236;28;20570;-57
2023/04/17 02:41:33;;;;;;;21.67;15.37;;;;;;;;;;5073299;28;20448;-54
2023/04/17 02:44:01;;;;;;;21.80;16.13;;;;;;;;;;5072966;28;20991;-58
2023/04/17 02:46:27;;;;;;;18.60;15.03;;;;;;;;;;5073249;28;20492;-57
2023/04/17 02:48:54;;;;;;;18.67;15.03;;;;;;;;;;5073145;28;20543;-55
2023/04/17 02:51:23;;;;;;;18.07;15.50;;;;;;;;;;5072939;28;20832;-56
2023/04/17 02:53:49;;;;;;;19.53;14.77;;;;;;;;;;5073198;28;20531;-56
2023/04/17 02:56:16;;;;;;;22.70;15.87;;;;;;;;;;5073070;28;20543;-57
2023/04/17 02:58:44;;;;;;;19.40;15.00;;;;;;;;;;5072898;28;20488;-54
2023/04/17 03:01:11;;;;;;;18.03;14.67;;;;;;;;;;5072884;28;20501;-55
2023/04/17 03:03:40;;;;;;;20.90;15.03;;;;;;;;;;5072808;28;20815;-57
2023/04/17 03:06:08;;;;;;;22.00;16.33;;;;;;;;;;5072721;28;20448;-58
2023/04/17 03:08:37;;;;;;;20.27;16.60;;;;;;;;;;5072957;28;20834;-54
2023/04/17 03:11:04;;;;;;;17.80;15.47;;;;;;;;;;5072855;28;20455;-57
2023/04/17 03:13:31;;;;;;;22.90;16.27;;;;;;;;;;5072818;28;20452;-57
2023/04/17 03:15:58;;;;;;;20.13;16.50;;;;;;;;;;5072693;28;20454;-55
2023/04/17 03:18:25;;;;;;;22.90;17.10;;;;;;;;;;5072491;28;20938;-56
2023/04/17 03:20:52;;;;;;;22.70;15.50;;;;;;;;;;5072550;28;20451;-56
2023/04/17 03:23:19;;;;;;;16.93;14.67;;;;;;;;;;5072718;28;20470;-57
2023/04/17 03:25:48;;;;;;;17.87;14.27;;;;;;;;;;5072542;28;20444;-58
2023/04/17 03:28:14;;;;;;;18.07;15.57;;;;;;;;;;5072489;28;20447;-57
2023/04/17 03:30:41;;;;;;;19.30;15.33;;;;;;;;;;5072551;28;20939;-55
2023/04/17 03:33:08;;;;;;;19.73;16.40;;;;;;;;;;5072344;28;20562;-56
2023/04/17 03:35:36;;;;;;;20.63;14.97;;;;;;;;;;5072548;28;20546;-57
2023/04/17 03:38:03;;;;;;;20.77;14.83;;;;;;;;;;5072372;28;20501;-58
2023/04/17 03:40:30;;;;;;;19.67;15.63;;;;;;;;;;5072498;28;20542;-58
2023/04/17 03:42:58;;;;;;;18.03;15.13;;;;;;;;;;5072271;28;20558;-57
2023/04/17 03:45:25;;;;;;;17.40;14.17;;;;;;;;;;5072343;28;20485;-59
2023/04/17 03:47:52;;;;;;;17.07;14.10;;;;;;;;;;5072963;28;20875;-57
2023/04/17 03:50:19;;;;;;;17.50;14.30;;;;;;;;;;5072852;28;20538;-58
2023/04/17 03:52:51;;;;;;;18.37;13.10;;;;;;;;;;5072856;28;21011;-60
2023/04/17 03:55:19;;;;;;;16.60;14.40;;;;;;;;;;5072719;28;20459;-57
2023/04/17 03:57:47;;;;;;;16.83;13.83;;;;;;;;;;5072594;28;20455;-57
2023/04/17 04:00:16;;;;;;;21.30;15.97;;;;;;;;;;5072502;28;20988;-57
2023/04/17 04:02:43;;;;;;;19.50;14.93;;;;;;;;;;5072727;28;20458;-56
2023/04/17 04:05:10;;;;;;;23.27;15.03;;;;;;;;;;5072674;28;20459;-57
2023/04/17 04:07:37;;;;;;;16.77;14.97;;;;;;;;;;5072618;28;20448;-57
2023/04/17 04:10:04;;;;;;;20.83;15.80;;;;;;;;;;5072448;28;20978;-55
2023/04/17 04:12:30;;;;;;;16.40;14.60;;;;;;;;;;5072537;28;20562;-57
2023/04/17 04:14:57;;;;;;;20.70;15.73;;;;;;;;;;5072695;28;20450;-53
2023/04/17 04:17:25;;;;;;;19.23;15.57;;;;;;;;;;5072681;28;20448;-56
2023/04/17 04:19:52;;;;;;;18.27;15.80;;;;;;;;;;5072245;28;20479;-56
2023/04/17 04:22:20;;;;;;;18.90;15.27;;;;;;;;;;5072483;28;20466;-57
2023/04/17 04:24:47;;;;;;;19.33;15.63;;;;;;;;;;5072463;28;20471;-56
2023/04/17 04:27:16;;;;;;;18.97;15.83;;;;;;;;;;5072267;28;20769;-56
2023/04/17 04:29:47;;;;;;;19.23;16.83;;;;;;;;;;5072543;28;20852;-57
2023/04/17 04:32:14;;;;;;;17.90;15.77;;;;;;;;;;5072435;28;20448;-56
2023/04/17 04:34:43;;;;;;;20.47;17.03;;;;;;;;;;5072355;28;20513;-55
2023/04/17 04:37:14;;;;;;;21.57;16.93;;;;;;;;;;5072107;28;20897;-57
2023/04/17 04:39:41;;;;;;;17.00;15.00;;;;;;;;;;5072119;28;20548;-57
2023/04/17 04:42:08;;;;;;;16.97;15.10;;;;;;;;;;5072366;28;20455;-55
2023/04/17 04:44:35;;;;;;;23.80;17.23;;;;;;;;;;5072161;28;20526;-57
2023/04/17 04:47:02;;;;;;;19.33;16.10;;;;;;;;;;5072252;28;20455;-56
2023/04/17 04:49:29;;;;;;;17.40;14.83;;;;;;;;;;5074199;28;20589;-57
2023/04/17 04:51:57;;;;;;;17.80;15.90;;;;;;;;;;5075688;28;20486;-58
2023/04/17 04:54:24;;;;;;;24.80;15.33;;;;;;;;;;5075566;28;20458;-57
2023/04/17 04:56:51;;;;;;;20.70;15.40;;;;;;;;;;5075845;28;20527;-56
2023/04/17 04:59:18;;;;;;;20.40;17.13;;;;;;;;;;5075617;28;20475;-57
2023/04/17 05:01:45;;;;;;;19.03;16.47;;;;;;;;;;5075619;28;20561;-57
2023/04/17 05:04:12;;;;;;;23.47;16.13;;;;;;;;;;5075497;28;20538;-57
2023/04/17 05:06:39;;;;;;;20.37;16.10;;;;;;;;;;5075343;28;20888;-58
2023/04/17 05:09:08;;;;;;;20.30;16.47;;;;;;;;;;5075199;28;20931;-57
2023/04/17 05:11:34;;;;;;;24.00;16.33;;;;;;;;;;5075464;28;20800;-56
2023/04/17 05:14:01;;;;;;;19.30;15.43;;;;;;;;;;5075313;28;20454;-57
2023/04/17 05:16:28;;;;;;;23.10;17.07;;;;;;;;;;5075370;28;20810;-55
2023/04/17 05:18:55;;;;;;;21.70;16.80;;;;;;;;;;5075080;28;20519;-57
2023/04/17 05:21:22;;;;;;;21.37;17.30;;;;;;;;;;5075057;28;20474;-57
2023/04/17 05:23:49;;;;;;;22.00;16.93;;;;;;;;;;5075279;28;20454;-57
2023/04/17 05:26:20;;;;;;;21.03;17.20;;;;;;;;;;5075240;28;20452;-56
2023/04/17 05:28:47;;;;;;;20.00;17.07;;;;;;;;;;5075203;28;20881;-57
2023/04/17 05:31:14;;;;;;;21.33;17.40;;;;;;;;;;5074808;28;20451;-57
2023/04/17 05:33:41;;;;;;;21.10;18.57;;;;;;;;;;5074848;28;20452;-56
2023/04/17 05:36:08;;;;;;;20.70;18.17;;;;;;;;;;5074692;28;20534;-56
2023/04/17 05:38:35;;;;;;;28.07;18.37;;;;;;;;;;5074843;28;20505;-55
2023/04/17 05:41:02;;;;;;;21.70;17.53;;;;;;;;;;5074870;28;20448;-56
2023/04/17 05:43:30;;;;;;;23.17;18.90;;;;;;;;;;5074467;28;20483;-56
2023/04/17 05:45:57;;;;;;;22.97;19.27;;;;;;;;;;5074702;28;20447;-57
2023/04/17 05:48:24;;;;;;;26.03;18.90;;;;;;;;;;5074403;28;20448;-57
2023/04/17 05:50:51;;;;;;;29.53;21.00;;;;;;;;;;5074602;28;20443;-57
2023/04/17 05:53:18;;;;;;;28.50;21.23;;;;;;;;;;5074553;28;20538;-57
2023/04/17 05:55:45;;;;;;;25.63;19.53;;;;;;;;;;5074432;28;20545;-56
2023/04/17 05:58:12;;;;;;;27.23;20.93;;;;;;;;;;5074439;28;20444;-55
2023/04/17 06:00:41;;;;;;;32.10;22.10;;;;;;;;;;5073103;28;20506;-55
2023/04/17 06:03:09;;;;;;;32.03;22.30;;;;;;;;;;5074009;28;20483;-56
2023/04/17 06:05:35;;;;;;;30.63;22.53;;;;;;;;;;5074351;28;21001;-56
2023/04/17 06:08:02;;;;;;;32.43;22.60;;;;;;;;;;5074343;28;20460;-56
2023/04/17 06:10:29;;;;;;;33.40;25.40;;;;;;;;;;5074290;28;20543;-55
2023/04/17 06:12:56;;;;;;;30.10;22.17;;;;;;;;;;5074174;28;20560;-56
2023/04/17 06:15:23;;;;;;;33.97;24.17;;;;;;;;;;5074061;28;20450;-59
2023/04/17 06:17:51;;;;;;;29.17;23.50;;;;;;;;;;5074463;28;20447;-57
2023/04/17 06:20:18;;;;;;;34.03;24.90;;;;;;;;;;5073991;28;20515;-58
2023/04/17 06:22:46;;;;;;;35.00;24.43;;;;;;;;;;5073903;28;20535;-57
2023/04/17 06:25:13;;;;;;;34.20;26.40;;;;;;;;;;5073961;28;20463;-56
2023/04/17 06:27:39;;;;;;;32.27;24.70;;;;;;;;;;5074006;28;20487;-55
2023/04/17 06:30:07;;;;;;;30.80;23.20;;;;;;;;;;5073732;28;20455;-57
2023/04/17 06:32:34;;;;;;;27.17;23.23;;;;;;;;;;5073925;28;20447;-56
2023/04/17 06:35:02;;;;;;;31.50;23.10;;;;;;;;;;5073728;28;20454;-57
2023/04/17 06:37:29;;;;;;;34.57;24.87;;;;;;;;;;5073860;28;20450;-56
2023/04/17 06:39:56;;;;;;;32.30;25.00;;;;;;;;;;5072354;28;20470;-56
2023/04/17 06:42:23;;;;;;;36.03;25.33;;;;;;;;;;5072974;28;20448;-58
2023/04/17 06:44:50;;;;;;;34.27;25.90;;;;;;;;;;5072345;28;21052;-56
2023/04/17 06:47:17;;;;;;;34.80;25.30;;;;;;;;;;5073538;28;20454;-57
2023/04/17 06:49:44;;;;;;;33.00;24.07;;;;;;;;;;5073388;28;20539;-56
2023/04/17 06:52:12;;;;;;;32.40;23.67;;;;;;;;;;5073338;28;20543;-57
2023/04/17 06:54:39;;;;;;;30.47;24.90;;;;;;;;;;5073320;28;20546;-56
2023/04/17 06:57:09;;;;;;;29.97;24.97;;;;;;;;;;5073112;28;20444;-54
2023/04/17 06:59:36;;;;;;;34.13;24.60;;;;;;;;;;5073175;28;20472;-56
2023/04/17 07:02:03;;;;;;;26.97;21.50;;;;;;;;;;5073040;28;20448;-55
2023/04/17 07:04:30;;;;;;;30.80;23.90;;;;;;;;;;5073013;28;20866;-55
2023/04/17 07:06:57;;;;;;;33.53;24.37;;;;;;;;;;5072577;28;20971;-53
2023/04/17 07:09:26;;;;;;;33.50;24.47;;;;;;;;;;5072842;28;20539;-54
2023/04/17 07:11:53;;;;;;;32.20;24.67;;;;;;;;;;5072611;28;20454;-58
2023/04/17 07:14:19;;;;;;;28.60;22.37;;;;;;;;;;5073019;28;20512;-57
2023/04/17 07:16:46;;;;;;;26.83;21.60;;;;;;;;;;5073079;28;20501;-58
2023/04/17 07:19:13;;;;;;;27.13;23.47;;;;;;;;;;5072583;28;20637;-58
2023/04/17 07:21:40;;;;;;;30.47;23.50;;;;;;;;;;5072706;28;20547;-58
2023/04/17 07:24:07;;;;;;;26.00;21.63;;;;;;;;;;5072925;28;20474;-56
2023/04/17 07:26:36;;;;;;;26.17;20.70;;;;;;;;;;5072940;28;20476;-60
2023/04/17 07:29:03;;;;;;;29.20;21.40;;;;;;;;;;5072991;28;20454;-57
2023/04/17 07:31:30;;;;;;;28.50;19.87;;;;;;;;;;5072974;28;20455;-57
2023/04/17 07:33:57;;;;;;;26.53;20.40;;;;;;;;;;5072349;28;20444;-57
2023/04/17 07:36:26;;;;;;;25.37;19.93;;;;;;;;;;5071359;28;20487;-55
2023/04/17 07:38:53;;;;;;;22.80;19.90;;;;;;;;;;5069276;28;20455;-56
2023/04/17 07:41:20;;;;;;;26.13;19.50;;;;;;;;;;5072341;28;20475;-55
2023/04/17 07:43:48;;;;;;;24.13;17.60;;;;;;;;;;5072092;28;21077;-56
2023/04/17 07:46:15;;;;;;;31.83;20.87;;;;;;;;;;5072342;28;20532;-56
2023/04/17 07:48:42;;;;;;;26.37;20.73;;;;;;;;;;5072583;28;20444;-57
2023/04/17 07:51:09;;;;;;;31.83;20.13;;;;;;;;;;5072606;28;20454;-58
2023/04/17 07:53:37;;;;;;;26.40;19.87;;;;;;;;;;5072416;28;20443;-57
2023/04/17 07:56:04;;;;;;;24.10;20.00;;;;;;;;;;5072700;28;20455;-57
2023/04/17 07:58:34;;;;;;;33.33;20.03;;;;;;;;;;5072535;28;20460;-56
2023/04/17 08:01:03;;;;;;;25.93;19.87;;;;;;;;;;5072485;28;20483;-57
2023/04/17 08:03:30;;;;;;;26.00;19.40;;;;;;;;;;5072542;28;20822;-55
2023/04/17 08:05:57;;;;;;;23.47;18.93;;;;;;;;;;5072400;28;20448;-56
2023/04/17 08:08:24;;;;;;;22.80;18.20;;;;;;;;;;5072776;28;21006;-57
2023/04/17 08:10:51;;;;;;;27.00;19.90;;;;;;;;;;5072442;28;20460;-56
2023/04/17 08:13:18;;;;;;;25.70;20.07;;;;;;;;;;5072528;28;20452;-56
2023/04/17 08:15:46;;;;;;;26.00;19.50;;;;;;;;;;5072425;28;20450;-56
2023/04/17 08:18:14;;;;;;;32.33;20.00;;;;;;;;;;5072436;28;20881;-57
2023/04/17 08:20:41;;;;;;;22.33;17.50;;;;;;;;;;5072230;28;20978;-57
2023/04/17 08:23:08;;;;;;;26.10;19.83;;;;;;;;;;5072609;28;20934;-56
2023/04/17 08:25:35;;;;;;;24.50;19.33;;;;;;;;;;5076028;28;20934;-57
2023/04/17 08:28:02;;;;;;;25.47;19.80;;;;;;;;;;5076132;28;20454;-57
2023/04/17 08:30:29;;;;;;;22.27;17.80;;;;;;;;;;5076045;28;20811;-57
2023/04/17 08:32:56;;;;;;;20.73;17.23;;;;;;;;;;5076000;28;20501;-56
2023/04/17 08:35:25;;;;;;;29.00;19.10;;;;;;;;;;5075875;28;20537;-56
2023/04/17 08:37:54;;;;;;;30.50;19.80;;;;;;;;;;5075965;28;20448;-56
2023/04/17 08:40:23;;;;;;;23.50;19.47;;;;;;;;;;5075843;28;20468;-56
2023/04/17 08:42:50;;;;;;;22.10;18.10;;;;;;;;;;5075190;28;20990;-54
2023/04/17 08:45:18;;;;;;;24.30;19.43;;;;;;;;;;5075279;28;20806;-57
2023/04/17 08:47:45;;;;;;;23.27;19.40;;;;;;;;;;5075206;28;20456;-57
2023/04/17 08:50:13;;;;;;;20.70;17.50;;;;;;;;;;5075344;28;20475;-58
2023/04/17 08:52:42;;;;;;;24.43;18.70;;;;;;;;;;5075225;28;20785;-57
2023/04/17 08:55:27;;;;;;;22.43;18.40;;;;;;;;;;5114942;27;20508;-58
2023/04/17 08:57:55;;;;;;;23.93;19.40;;;;;;;;;;5090335;28;20443;-57
2023/04/17 09:00:26;;;;;;;22.60;18.00;;;;;;;;;;5098967;28;20489;-58
2023/04/17 09:02:53;;;;;;;24.17;18.77;;;;;;;;;;5094230;28;20474;-58
2023/04/17 09:05:21;;;;;;;24.60;19.37;;;;;;;;;;5090020;28;20466;-58
2023/04/17 09:07:48;;;;;;;24.00;17.70;;;;;;;;;;5090221;28;20451;-58
2023/04/17 09:10:15;;;;;;;28.67;18.93;;;;;;;;;;5090205;28;20451;-56
2023/04/17 09:12:58;;;;;;;29.73;19.40;;;;;;;;;;5089981;28;20906;-58
2023/04/17 09:15:25;;;;;;;21.07;17.80;;;;;;;;;;5090080;28;20215;-57
2023/04/17 09:17:52;;;;;;;22.30;18.10;;;;;;;;;;5090101;28;20456;-59
2023/04/17 09:20:19;;;;;;;24.02;20.23;;;;;;;;;;5089134;28;20900;-59
2023/04/17 09:22:46;;;;;;;27.93;18.57;;;;;;;;;;5089750;28;20189;-59
2023/04/17 09:25:17;;;;;;;26.23;19.77;;;;;;;;;;5089625;28;20966;-58
2023/04/17 09:27:45;;;;;;;20.53;17.73;;;;;;;;;;5089839;28;20451;-59
2023/04/17 09:30:13;;;;;;;25.07;18.90;;;;;;;;;;5089915;28;20469;-59
2023/04/17 09:32:40;;;;;;;22.07;17.63;;;;;;;;;;5089772;28;20788;-59
2023/04/17 09:35:07;;;;;;;20.67;18.00;;;;;;;;;;5089643;28;20479;-59
2023/04/17 09:37:50;;;;;;;18.33;16.03;;;;;;;;;;5089660;28;20543;-59
2023/04/17 09:40:17;;;;;;;26.40;18.40;;;;;;;;;;5089901;28;20494;-60
2023/04/17 09:42:55;;;;;;;22.30;16.57;;;;;;;;;;5089663;28;20634;-59
2023/04/17 09:45:23;;;;;;;24.73;17.13;;;;;;;;;;5089448;28;20565;-59
2023/04/17 09:47:50;;;;;;;21.37;16.40;;;;;;;;;;5089220;28;20534;-59
2023/04/17 09:50:20;;;;;;;17.27;14.67;;;;;;;;;;5097209;28;20442;-59
2023/04/17 09:52:48;;;;;;;20.87;15.87;;;;;;;;;;5089333;28;20811;-59
2023/04/17 09:55:16;;;;;;;23.03;15.70;;;;;;;;;;5088995;28;20529;-59
2023/04/17 09:57:43;;;;;;;21.47;16.80;;;;;;;;;;5089373;28;20447;-59
2023/04/17 10:00:13;;;;;;;19.10;16.00;;;;;;;;;;5089138;28;20498;-59
2023/04/17 10:02:42;;;;;;;18.90;15.70;;;;;;;;;;5089088;28;20451;-59
2023/04/17 10:05:10;;;;;;;20.13;15.80;;;;;;;;;;5084743;28;20862;-58
2023/04/17 10:07:38;;;;;;;20.13;16.27;;;;;;;;;;5075629;28;20448;-59
2023/04/17 10:10:08;;;;;;;19.07;15.97;;;;;;;;;;5075447;28;20951;-59
2023/04/17 10:12:35;;;;;;;18.13;16.13;;;;;;;;;;5075679;28;20939;-58
2023/04/17 10:15:03;;;;;;;20.47;16.67;;;;;;;;;;5075357;28;20525;-59
2023/04/17 10:17:33;;;;;;;18.10;15.43;;;;;;;;;;5082704;28;20440;-59
2023/04/17 10:20:16;;;;;;;20.87;15.40;;;;;;;;;;5083994;28;20452;-59
2023/04/17 10:22:43;;;;;;;21.87;16.27;;;;;;;;;;5085594;28;20439;-58
2023/04/17 10:25:17;;;;;;;20.40;15.23;;;;;;;;;;5080614;28;20854;-59
2023/04/17 10:27:45;;;;;;;22.20;17.70;;;;;;;;;;5075194;28;20947;-59
2023/04/17 10:30:13;;;;;;;25.83;16.63;;;;;;;;;;5075340;28;20970;-60
2023/04/17 10:32:42;;;;;;;19.93;16.20;;;;;;;;;;5075169;28;20443;-59
2023/04/17 10:35:24;;;;;;;21.07;16.60;;;;;;;;;;5084699;28;20645;-58
2023/04/17 10:38:07;;;;;;;21.50;17.73;;;;;;;;;;5084706;28;20780;-59
2023/04/17 10:40:35;;;;;;;27.10;18.57;;;;;;;;;;5085583;28;20432;-59
2023/04/17 10:43:03;;;;;;;23.37;17.70;;;;;;;;;;5083569;28;20523;-59
2023/04/17 10:45:45;;;;;;;24.07;18.57;;;;;;;;;;5084527;28;20450;-59
2023/04/17 10:48:21;;;;;;;21.97;18.40;;;;;;;;;;5084847;28;20942;-59
2023/04/17 10:50:48;;;;;;;23.70;18.67;;;;;;;;;;5084162;28;20451;-59
2023/04/17 10:53:30;;;;;;;25.80;18.47;;;;;;;;;;5083479;28;20959;-57
2023/04/17 10:55:57;;;;;;;21.63;17.30;;;;;;;;;;5085066;28;20448;-59
2023/04/17 10:58:24;;;;;;;22.43;16.83;;;;;;;;;;5094939;28;20447;-59
2023/04/17 11:00:51;;;;;;;18.80;15.83;;;;;;;;;;5094765;28;20446;-59
2023/04/17 11:03:18;;;;;;;23.17;17.27;;;;;;;;;;5094978;28;20447;-59
2023/04/17 11:05:47;;;;;;;26.07;17.60;;;;;;;;;;5094801;28;20454;-58
2023/04/17 11:08:14;;;;;;;23.53;18.13;;;;;;;;;;5094511;28;20450;-60
2023/04/17 11:10:41;;;;;;;21.90;16.47;;;;;;;;;;5094642;28;20525;-60
2023/04/17 11:13:08;;;;;;;18.60;15.57;;;;;;;;;;5094503;28;20479;-63
2023/04/17 11:15:35;;;;;;;28.53;18.13;;;;;;;;;;5094204;28;20482;-62
2023/04/17 11:18:03;;;;;;;21.60;18.03;;;;;;;;;;5093315;28;20533;-63
2023/04/17 11:20:30;;;;;;;28.50;18.77;;;;;;;;;;5094478;28;20810;-61
2023/04/17 11:23:01;;;;;;;24.73;19.50;;;;;;;;;;5094368;28;20534;-60
2023/04/17 11:25:30;;;;;;;22.13;18.53;;;;;;;;;;5094166;28;20538;-59
2023/04/17 11:27:57;;;;;;;30.13;20.47;;;;;;;;;;5087202;28;20876;-60
2023/04/17 11:30:25;;;;;;;25.70;19.63;;;;;;;;;;5074170;28;20546;-59
2023/04/17 11:32:52;;;;;;;23.93;18.80;;;;;;;;;;5073895;28;20444;-61
2023/04/17 11:35:21;;;;;;;28.60;18.73;;;;;;;;;;5073801;28;20480;-61
2023/04/17 11:38:10;;;;;;;26.00;20.97;;;;;;;;;;5073813;28;20544;-62
2023/04/17 11:40:38;;;;;;;30.33;21.90;;;;;;;;;;5073713;28;20488;-61
2023/04/17 11:43:08;;;;;;;26.90;21.03;;;;;;;;;;5073803;28;20447;-61
2023/04/17 11:45:36;;;;;;;27.40;20.97;;;;;;;;;;5073622;28;20857;-61
2023/04/17 11:48:03;;;;;;;30.37;21.63;;;;;;;;;;5073643;28;20479;-61
2023/04/17 11:50:30;;;;;;;37.87;23.80;;;;;;;;;;5073531;28;20483;-60
2023/04/17 11:52:58;;;;;;;34.20;23.83;;;;;;;;;;5073124;28;20447;-60
2023/04/17 11:55:29;;;;;;;32.97;22.07;;;;;;;;;;5073556;28;20483;-60
2023/04/17 11:57:57;;;;;;;40.43;24.97;;;;;;;;;;5073628;28;20489;-60
2023/04/17 12:00:27;;;;;;;34.30;23.17;;;;;;;;;;5073291;28;20961;-60
2023/04/17 12:02:55;;;;;;;35.27;22.70;;;;;;;;;;5073138;28;20455;-60
2023/04/17 12:05:22;;;;;;;33.60;21.73;;;;;;;;;;5073035;28;20954;-60
2023/04/17 12:07:59;;;;;;;38.50;22.83;;;;;;;;;;5073116;28;20462;-60
2023/04/17 12:10:36;;;;;;;31.53;22.43;;;;;;;;;;5073081;28;20459;-60
2023/04/17 12:13:03;;;;;;;30.33;22.30;;;;;;;;;;5073048;28;20444;-60
2023/04/17 12:15:29;;;;;;;33.90;23.17;;;;;;;;;;5072821;28;20911;-60
2023/04/17 12:17:56;;;;;;;33.40;23.30;;;;;;;;;;5072728;28;20547;-60
2023/04/17 12:20:23;;;;;;;29.80;23.17;;;;;;;;;;5072895;28;20454;-60
2023/04/17 12:22:50;;;;;;;34.07;24.03;;;;;;;;;;5072925;28;20448;-61
2023/04/17 12:25:17;;;;;;;31.60;23.50;;;;;;;;;;5072838;28;20447;-60
2023/04/17 12:27:45;;;;;;;29.67;22.13;;;;;;;;;;5072360;28;21014;-61
2023/04/17 12:30:13;;;;;;;30.33;22.40;;;;;;;;;;5072665;28;20860;-60
2023/04/17 12:32:41;;;;;;;28.90;22.07;;;;;;;;;;5072468;28;20531;-60
2023/04/17 12:35:08;;;;;;;27.60;21.90;;;;;;;;;;5072683;28;20571;-60
2023/04/17 12:37:35;;;;;;;32.20;22.77;;;;;;;;;;5072600;28;20451;-60
2023/04/17 12:40:03;;;;;;;31.03;21.70;;;;;;;;;;5072522;28;20440;-60
2023/04/17 12:42:30;;;;;;;32.60;24.17;;;;;;;;;;5072448;28;20451;-60
2023/04/17 12:44:58;;;;;;;30.03;22.73;;;;;;;;;;5072247;28;20866;-60
2023/04/17 12:47:25;;;;;;;31.20;22.93;;;;;;;;;;5079927;28;20535;-60
2023/04/17 12:49:52;;;;;;;29.00;22.60;;;;;;;;;;5081672;28;20531;-60
2023/04/17 12:52:19;;;;;;;33.63;23.50;;;;;;;;;;5080363;28;20448;-60
2023/04/17 12:54:46;;;;;;;36.20;24.70;;;;;;;;;;5080323;28;20845;-60
2023/04/17 12:57:14;;;;;;;34.67;23.80;;;;;;;;;;5080825;28;20530;-60
2023/04/17 12:59:41;;;;;;;35.00;24.90;;;;;;;;;;5081934;28;20822;-60
2023/04/17 13:02:09;;;;;;;33.83;24.33;;;;;;;;;;5083887;28;20450;-60
2023/04/17 13:04:36;;;;;;;34.10;25.23;;;;;;;;;;5092695;28;20855;-60
2023/04/17 13:07:03;;;;;;;29.63;23.20;;;;;;;;;;5092487;28;20569;-60
2023/04/17 13:09:30;;;;;;;31.20;22.83;;;;;;;;;;5092045;28;20451;-60
2023/04/17 13:11:57;;;;;;;32.77;25.83;;;;;;;;;;5091948;28;20522;-60
2023/04/17 13:14:24;;;;;;;28.47;23.43;;;;;;;;;;5092315;28;20544;-60
2023/04/17 13:16:51;;;;;;;35.30;26.37;;;;;;;;;;5092588;28;20447;-60
2023/04/17 13:19:19;;;;;;;34.23;26.40;;;;;;;;;;5092114;28;20534;-60
2023/04/17 13:21:46;;;;;;;32.20;26.10;;;;;;;;;;5092377;28;20451;-60
2023/04/17 13:24:14;;;;;;;34.07;26.57;;;;;;;;;;5092394;28;20841;-60
2023/04/17 13:26:41;;;;;;;35.13;28.00;;;;;;;;;;5092253;28;20490;-60
2023/04/17 13:29:08;;;;;;;34.00;27.77;;;;;;;;;;5092167;28;20462;-60
2023/04/17 13:31:35;;;;;;;33.57;25.87;;;;;;;;;;5092309;28;20489;-60
2023/04/17 13:34:02;;;;;;;34.70;26.97;;;;;;;;;;5092363;28;20450;-60
2023/04/17 13:36:31;;;;;;;39.50;28.37;;;;;;;;;;5092267;28;20483;-60
2023/04/17 13:38:58;;;;;;;38.07;28.60;;;;;;;;;;5092104;28;20458;-60
2023/04/17 13:41:25;;;;;;;42.57;29.23;;;;;;;;;;5094713;28;20451;-60
2023/04/17 13:43:54;;;;;;;33.90;28.20;;;;;;;;;;5096107;28;20446;-60
2023/04/17 13:46:21;;;;;;;34.57;28.17;;;;;;;;;;5096011;28;20521;-61
2023/04/17 13:48:48;;;;;;;34.57;27.87;;;;;;;;;;5096025;28;20446;-60
2023/04/17 13:51:15;;;;;;;35.23;26.93;;;;;;;;;;5095998;28;20829;-60
2023/04/17 13:53:43;;;;;;;32.23;26.83;;;;;;;;;;5095796;28;20565;-60
2023/04/17 13:56:10;;;;;;;32.60;26.80;;;;;;;;;;5095777;28;20482;-61
2023/04/17 13:58:37;;;;;;;27.63;23.10;;;;;;;;;;5096046;28;20454;-60
2023/04/17 14:01:04;;;;;;;30.67;24.30;;;;;;;;;;5095843;28;20553;-60
2023/04/17 14:03:30;;;;;;;29.60;25.90;;;;;;;;;;5095822;28;20507;-60
2023/04/17 14:05:57;;;;;;;32.47;23.93;;;;;;;;;;5095537;28;20451;-60
2023/04/17 14:08:25;;;;;;;29.70;24.33;;;;;;;;;;5095374;28;20538;-60
2023/04/17 14:10:53;;;;;;;28.97;23.53;;;;;;;;;;5095775;28;20534;-60
2023/04/17 14:13:20;;;;;;;26.77;22.87;;;;;;;;;;5095637;28;20541;-60
2023/04/17 14:15:47;;;;;;;28.60;24.03;;;;;;;;;;5095359;28;20680;-60
2023/04/17 14:18:14;;;;;;;27.40;22.57;;;;;;;;;;5095618;28;20494;-60
2023/04/17 14:20:41;;;;;;;24.13;21.30;;;;;;;;;;5095405;28;20489;-60